Airfield :
LOGIN :

Register | Disclaimer

   EN    FR    IT 

 










Legend :    VFR   Marginal VFR   IFR   Intensive IFR   Very Intensive IFR
Visi :
Ceiling :
>= 8 km
>= 3000ft
5 to 8 km
1000 to 3000 ft
1500m to 5 km
500 to 1000 ft
800 to 1500m
200 to 500 ft
< 800m
< 200 ft
Symbols :   Thunderstorms  Fog  Heavy snow  Heavy precipitations  Wind > 20 kt
SIGMETs :     Misc.  Thunderstorms  Icing  Turbulence  Mountain Waves  Volcanic Ashes







- Airport Elevation : 170 ft
- IATA code : KRP


EKKA - Karup

CURRENT METAR :
  • 162022Z AUTO 17002KT 4900NDV BR NCD 11/10 Q1017

EXPIRED METARs :
  • 161950Z AUTO 17003KT 5000NDV FEW220/// 11/11 Q1017
  • 161920Z AUTO 17003KT 4900NDV BR SCT230/// 11/11 Q1017
  • 161917Z AUTO 17003KT 4900NDV BR FEW230/// 11/11 Q1017
  • 161850Z AUTO 18002KT 4900NDV BR NCD 12/11 Q1017
  • 161833Z AUTO 18001KT 4900NDV NCD 12/11 Q1017
  • 161820Z AUTO 18001KT 5000NDV NCD 12/11 Q1017
  • 161750Z AUTO 17002KT 7000NDV NCD 12/11 Q1017

TAF TAF EKKA
Valid from the 16 at 21:00 until the 17 at 18:00 UTC


162013Z 1621/1718 18005KT 5000 BR SCT010
TEMPO 1621/1708 0500 BCFG BKN002
BECMG 1708/1710 21006KT 8000 NSW
BECMG 1715/1718 26006KT 3000 -RADZ BR BKN006
No reported NOTAMs for that airfield.



MET'MAP, your aeronautical weather chart ! - Copyright ORBIFLY December 2007 - Disclaimer

ORBIFLY MET'MAP TEAM :

Programming & Development : Alexandra Zaïnal
Concept & Development : Baudouin d'Aumeries
Co-Development & Prog : Marc-Olivier Méhu
Technical & hardware support : Manuel Goepfert

Contact : metmap@orbifly.com




SOURCES & CREDITS :

   NOAA